sensor_id;sensor_type;location;lat;lon;timestamp;pressure;altitude;pressure_sealevel;temperature;humidity
60055;BME280;45930;53.514;55.904;2023-08-30T00:00:25;38734.97;;;-149.77;95.13
60055;BME280;45930;53.514;55.904;2023-08-30T00:01:45;39394.84;;;-149.77;95.01
60055;BME280;45930;53.514;55.904;2023-08-30T00:03:05;39701.13;;;-149.77;94.92
60055;BME280;45930;53.514;55.904;2023-08-30T00:04:25;40886.91;;;-149.77;94.05
60055;BME280;45930;53.514;55.904;2023-08-30T00:05:44;41159.69;;;-149.77;94.00
60055;BME280;45930;53.514;55.904;2023-08-30T00:07:03;41814.03;;;-149.77;93.85
60055;BME280;45930;53.514;55.904;2023-08-30T00:08:22;41078.63;;;-149.77;94.24
60055;BME280;45930;53.514;55.904;2023-08-30T00:09:41;41843.69;;;-149.77;93.73
60055;BME280;45930;53.514;55.904;2023-08-30T00:11:01;42446.75;;;-149.77;93.37
60055;BME280;45930;53.514;55.904;2023-08-30T00:12:22;42464.53;;;-149.77;93.53
60055;BME280;45930;53.514;55.904;2023-08-30T00:13:41;42490.25;;;-149.77;93.84
60055;BME280;45930;53.514;55.904;2023-08-30T00:15:01;42334.03;;;-149.77;93.95
60055;BME280;45930;53.514;55.904;2023-08-30T00:16:23;41695.41;;;-149.77;94.61
60055;BME280;45930;53.514;55.904;2023-08-30T00:17:42;41823.91;;;-149.77;94.59
60055;BME280;45930;53.514;55.904;2023-08-30T00:19:02;40967.94;;;-149.77;95.07
60055;BME280;45930;53.514;55.904;2023-08-30T00:20:22;39189.38;;;-149.77;96.42
60055;BME280;45930;53.514;55.904;2023-08-30T00:21:42;37857.94;;;-149.77;96.75
60055;BME280;45930;53.514;55.904;2023-08-30T00:23:01;38337.91;;;-149.77;96.73
60055;BME280;45930;53.514;55.904;2023-08-30T00:24:20;37571.56;;;-149.77;97.10
60055;BME280;45930;53.514;55.904;2023-08-30T00:25:39;37996.22;;;-149.77;96.47
60055;BME280;45930;53.514;55.904;2023-08-30T00:26:59;37826.34;;;-149.77;96.88
60055;BME280;45930;53.514;55.904;2023-08-30T00:28:18;37725.63;;;-149.77;96.70
60055;BME280;45930;53.514;55.904;2023-08-30T00:29:37;38671.75;;;-149.77;96.12
60055;BME280;45930;53.514;55.904;2023-08-30T00:30:56;38519.66;;;-149.77;96.42
60055;BME280;45930;53.514;55.904;2023-08-30T00:32:15;38318.16;;;-149.77;96.89
60055;BME280;45930;53.514;55.904;2023-08-30T00:33:35;37239.81;;;-149.77;97.32
60055;BME280;45930;53.514;55.904;2023-08-30T00:34:54;36633.59;;;-149.77;97.37
60055;BME280;45930;53.514;55.904;2023-08-30T00:36:14;36499.34;;;-149.77;97.70
60055;BME280;45930;53.514;55.904;2023-08-30T00:37:33;33886.13;;;-149.77;98.77
60055;BME280;45930;53.514;55.904;2023-08-30T00:38:53;34813.56;;;-149.77;98.20
60055;BME280;45930;53.514;55.904;2023-08-30T00:40:12;34874.75;;;-149.77;98.08
60055;BME280;45930;53.514;55.904;2023-08-30T00:41:31;34572.81;;;-149.77;98.07
60055;BME280;45930;53.514;55.904;2023-08-30T00:42:51;35271.47;;;-149.77;97.51
60055;BME280;45930;53.514;55.904;2023-08-30T00:44:10;37036.41;;;-149.77;96.84
60055;BME280;45930;53.514;55.904;2023-08-30T00:45:30;36775.75;;;-149.77;97.06
60055;BME280;45930;53.514;55.904;2023-08-30T00:46:49;37901.41;;;-149.77;96.35
60055;BME280;45930;53.514;55.904;2023-08-30T00:48:09;37976.47;;;-149.77;96.63
60055;BME280;45930;53.514;55.904;2023-08-30T00:49:31;37960.66;;;-149.77;96.58
60055;BME280;45930;53.514;55.904;2023-08-30T00:50:51;37200.31;;;-149.77;97.02
60055;BME280;45930;53.514;55.904;2023-08-30T00:52:10;37767.09;;;-149.77;96.77
60055;BME280;45930;53.514;55.904;2023-08-30T00:53:30;36331.53;;;-149.77;97.61
60055;BME280;45930;53.514;55.904;2023-08-30T00:54:50;35764.94;;;-149.77;97.68
60055;BME280;45930;53.514;55.904;2023-08-30T00:56:10;35798.50;;;-149.77;97.42
60055;BME280;45930;53.514;55.904;2023-08-30T00:57:30;37476.78;;;-149.77;96.50
60055;BME280;45930;53.514;55.904;2023-08-30T00:58:50;38693.50;;;-149.77;95.83
60055;BME280;45930;53.514;55.904;2023-08-30T01:00:10;39659.63;;;-149.77;95.16
60055;BME280;45930;53.514;55.904;2023-08-30T01:01:31;40450.09;;;-149.77;94.66
60055;BME280;45930;53.514;55.904;2023-08-30T01:02:50;40683.31;;;-149.77;94.85
60055;BME280;45930;53.514;55.904;2023-08-30T01:04:09;40031.13;;;-149.77;95.22
60055;BME280;45930;53.514;55.904;2023-08-30T01:05:28;40507.41;;;-149.77;94.87
60055;BME280;45930;53.514;55.904;2023-08-30T01:06:48;40774.22;;;-149.77;94.67
60055;BME280;45930;53.514;55.904;2023-08-30T01:08:07;40517.28;;;-149.77;95.00
60055;BME280;45930;53.514;55.904;2023-08-30T01:09:27;40424.41;;;-149.77;95.39
60055;BME280;45930;53.514;55.904;2023-08-30T01:12:22;41446.31;;;-149.77;94.05
60055;BME280;45930;53.514;55.904;2023-08-30T01:13:50;41845.66;;;-149.77;93.73
60055;BME280;45930;53.514;55.904;2023-08-30T01:15:17;42057.22;;;-149.77;93.54
60055;BME280;45930;53.514;55.904;2023-08-30T01:16:38;42500.13;;;-149.77;93.28
60055;BME280;45930;53.514;55.904;2023-08-30T01:17:57;42775.00;;;-149.77;92.97
60055;BME280;45930;53.514;55.904;2023-08-30T01:20:52;42549.56;;;-149.77;93.38
60055;BME280;45930;53.514;55.904;2023-08-30T01:23:55;43674.88;;;-149.77;92.16
60055;BME280;45930;53.514;55.904;2023-08-30T01:26:24;42794.78;;;-149.77;93.34
60055;BME280;45930;53.514;55.904;2023-08-30T01:27:10;42941.09;;;-149.77;93.36
60055;BME280;45930;53.514;55.904;2023-08-30T01:28:31;41685.53;;;-149.77;94.14
60055;BME280;45930;53.514;55.904;2023-08-30T01:29:54;43095.38;;;-149.77;92.70
60055;BME280;45930;53.514;55.904;2023-08-30T01:31:15;42745.34;;;-149.77;93.25
60055;BME280;45930;53.514;55.904;2023-08-30T01:32:36;43123.06;;;-149.77;93.05
60055;BME280;45930;53.514;55.904;2023-08-30T01:33:57;42986.59;;;-149.77;93.20
60055;BME280;45930;53.514;55.904;2023-08-30T01:35:17;42862.00;;;-149.77;93.17
60055;BME280;45930;53.514;55.904;2023-08-30T01:36:38;43148.75;;;-149.77;92.93
60055;BME280;45930;53.514;55.904;2023-08-30T01:37:59;42715.66;;;-149.77;93.54
60055;BME280;45930;53.514;55.904;2023-08-30T01:39:19;42272.72;;;-149.77;93.78
60055;BME280;45930;53.514;55.904;2023-08-30T01:40:42;42606.91;;;-149.77;93.29
60055;BME280;45930;53.514;55.904;2023-08-30T01:42:03;42462.56;;;-149.77;93.65
60055;BME280;45930;53.514;55.904;2023-08-30T01:43:25;42464.53;;;-149.77;93.75
60055;BME280;45930;53.514;55.904;2023-08-30T01:44:45;42634.59;;;-149.77;93.10
60055;BME280;45930;53.514;55.904;2023-08-30T01:46:05;42800.69;;;-149.77;93.59
60055;BME280;45930;53.514;55.904;2023-08-30T01:47:27;42347.88;;;-149.77;93.59
60055;BME280;45930;53.514;55.904;2023-08-30T01:48:47;42211.44;;;-149.77;93.94
60055;BME280;45930;53.514;55.904;2023-08-30T01:50:08;42506.06;;;-149.77;93.40
60055;BME280;45930;53.514;55.904;2023-08-30T01:51:29;42686.00;;;-149.77;93.51
60055;BME280;45930;53.514;55.904;2023-08-30T01:52:49;42616.78;;;-149.77;93.42
60055;BME280;45930;53.514;55.904;2023-08-30T01:54:09;42887.72;;;-149.77;93.08
60055;BME280;45930;53.514;55.904;2023-08-30T01:55:32;42737.41;;;-149.77;93.46
60055;BME280;45930;53.514;55.904;2023-08-30T01:56:51;42448.72;;;-149.77;93.63
60055;BME280;45930;53.514;55.904;2023-08-30T01:58:11;42636.56;;;-149.77;93.90
60055;BME280;45930;53.514;55.904;2023-08-30T01:59:30;42430.91;;;-149.77;93.68
60055;BME280;45930;53.514;55.904;2023-08-30T02:00:50;42498.16;;;-149.77;93.68
60055;BME280;45930;53.514;55.904;2023-08-30T02:02:09;43134.91;;;-149.77;92.77
60055;BME280;45930;53.514;55.904;2023-08-30T02:03:29;43779.72;;;-149.77;91.92
60055;BME280;45930;53.514;55.904;2023-08-30T02:04:48;43821.25;;;-149.77;92.03
60055;BME280;45930;53.514;55.904;2023-08-30T02:06:13;44116.00;;;-149.77;92.06
60055;BME280;45930;53.514;55.904;2023-08-30T02:07:54;43809.38;;;-149.77;92.14
60055;BME280;45930;53.514;55.904;2023-08-30T02:11:10;43421.69;;;-149.77;92.98
60055;BME280;45930;53.514;55.904;2023-08-30T02:12:49;43053.84;;;-149.77;93.25
60055;BME280;45930;53.514;55.904;2023-08-30T02:14:13;43047.91;;;-149.77;93.04
60055;BME280;45930;53.514;55.904;2023-08-30T02:15:37;43892.47;;;-149.77;92.32
60055;BME280;45930;53.514;55.904;2023-08-30T02:16:59;43791.59;;;-149.77;92.55
60055;BME280;45930;53.514;55.904;2023-08-30T02:18:19;43022.19;;;-149.77;93.53
60055;BME280;45930;53.514;55.904;2023-08-30T02:19:38;43069.66;;;-149.77;93.53
60055;BME280;45930;53.514;55.904;2023-08-30T02:20:58;42486.28;;;-149.77;93.75
60055;BME280;45930;53.514;55.904;2023-08-30T02:22:17;42664.25;;;-149.77;93.87
60055;BME280;45930;53.514;55.904;2023-08-30T02:23:36;42007.78;;;-149.77;94.10
60055;BME280;45930;53.514;55.904;2023-08-30T02:24:56;42452.66;;;-149.77;93.59
60055;BME280;45930;53.514;55.904;2023-08-30T02:26:18;42500.13;;;-149.77;93.68
60055;BME280;45930;53.514;55.904;2023-08-30T02:27:37;42640.53;;;-149.77;93.25
60055;BME280;45930;53.514;55.904;2023-08-30T02:28:56;43627.41;;;-149.77;92.44
60055;BME280;45930;53.514;55.904;2023-08-30T02:30:16;43362.38;;;-149.77;92.75
60055;BME280;45930;53.514;55.904;2023-08-30T02:31:35;43585.88;;;-149.77;92.35
60055;BME280;45930;53.514;55.904;2023-08-30T02:32:55;43307.00;;;-149.77;93.11
60055;BME280;45930;53.514;55.904;2023-08-30T02:34:13;42727.53;;;-149.77;93.33
60055;BME280;45930;53.514;55.904;2023-08-30T02:35:33;43429.63;;;-149.77;92.60
60055;BME280;45930;53.514;55.904;2023-08-30T02:36:52;43769.81;;;-149.77;92.18
60055;BME280;45930;53.514;55.904;2023-08-30T02:38:11;43744.09;;;-149.77;92.26
60055;BME280;45930;53.514;55.904;2023-08-30T02:39:30;43198.22;;;-149.77;93.04
60055;BME280;45930;53.514;55.904;2023-08-30T02:40:49;44025.00;;;-149.77;91.85
60055;BME280;45930;53.514;55.904;2023-08-30T02:42:08;44026.97;;;-149.77;91.89
60055;BME280;45930;53.514;55.904;2023-08-30T02:43:28;44195.13;;;-149.77;91.75
60055;BME280;45930;53.514;55.904;2023-08-30T02:44:47;44205.00;;;-149.77;91.51
60055;BME280;45930;53.514;55.904;2023-08-30T02:46:06;44697.63;;;-149.77;90.91
60055;BME280;45930;53.514;55.904;2023-08-30T02:47:26;44859.88;;;-149.77;90.72
60055;BME280;45930;53.514;55.904;2023-08-30T02:48:45;45170.53;;;-149.77;90.52
60055;BME280;45930;53.514;55.904;2023-08-30T02:50:05;44588.81;;;-149.77;91.53
60055;BME280;45930;53.514;55.904;2023-08-30T02:51:24;44745.13;;;-149.77;91.10
60055;BME280;45930;53.514;55.904;2023-08-30T02:52:43;45362.47;;;-149.77;90.28
60055;BME280;45930;53.514;55.904;2023-08-30T02:54:02;45081.47;;;-149.77;91.02
60055;BME280;45930;53.514;55.904;2023-08-30T02:55:22;44820.31;;;-149.77;91.17
60055;BME280;45930;53.514;55.904;2023-08-30T02:56:42;45138.84;;;-149.77;90.46
60055;BME280;45930;53.514;55.904;2023-08-30T02:58:02;45105.22;;;-149.77;91.32
60055;BME280;45930;53.514;55.904;2023-08-30T02:59:22;44116.00;;;-149.77;92.09
60055;BME280;45930;53.514;55.904;2023-08-30T03:00:42;44396.91;;;-149.77;91.65
60055;BME280;45930;53.514;55.904;2023-08-30T03:02:01;44462.19;;;-149.77;92.00
60055;BME280;45930;53.514;55.904;2023-08-30T03:03:21;43898.41;;;-149.77;92.47
60055;BME280;45930;53.514;55.904;2023-08-30T03:04:40;44078.41;;;-149.77;92.32
60055;BME280;45930;53.514;55.904;2023-08-30T03:06:00;43510.72;;;-149.77;93.06
60055;BME280;45930;53.514;55.904;2023-08-30T03:07:20;42907.50;;;-149.77;93.42
60055;BME280;45930;53.514;55.904;2023-08-30T03:08:39;43243.69;;;-149.77;93.04
60055;BME280;45930;53.514;55.904;2023-08-30T03:09:59;43346.53;;;-149.77;92.93
60055;BME280;45930;53.514;55.904;2023-08-30T03:11:18;42116.53;;;-149.77;94.84
60055;BME280;45930;53.514;55.904;2023-08-30T03:12:38;41489.81;;;-149.77;95.01
60055;BME280;45930;53.514;55.904;2023-08-30T03:13:57;41189.31;;;-149.77;95.19
60055;BME280;45930;53.514;55.904;2023-08-30T03:15:17;41529.34;;;-149.77;94.63
60055;BME280;45930;53.514;55.904;2023-08-30T03:16:36;41855.53;;;-149.77;94.63
60055;BME280;45930;53.514;55.904;2023-08-30T03:17:56;41175.50;;;-149.77;94.88
60055;BME280;45930;53.514;55.904;2023-08-30T03:19:14;40382.91;;;-149.77;95.30
60055;BME280;45930;53.514;55.904;2023-08-30T03:20:36;40958.06;;;-149.77;95.04
60055;BME280;45930;53.514;55.904;2023-08-30T03:21:55;40681.34;;;-149.77;95.35
60055;BME280;45930;53.514;55.904;2023-08-30T03:23:15;40376.97;;;-149.77;95.35
60055;BME280;45930;53.514;55.904;2023-08-30T03:24:34;40890.84;;;-149.77;95.06
60055;BME280;45930;53.514;55.904;2023-08-30T03:29:13;41790.31;;;-149.77;94.21
60055;BME280;45930;53.514;55.904;2023-08-30T03:33:50;41976.16;;;-149.77;93.42
60055;BME280;45930;53.514;55.904;2023-08-30T03:35:09;42067.09;;;-149.77;93.94
60055;BME280;45930;53.514;55.904;2023-08-30T03:39:47;40568.69;;;-149.77;95.34
60055;BME280;45930;53.514;55.904;2023-08-30T03:44:25;41566.91;;;-149.77;94.05
60055;BME280;45930;53.514;55.904;2023-08-30T03:49:05;40266.28;;;-149.77;95.42
60055;BME280;45930;53.514;55.904;2023-08-30T03:58:33;44640.25;;;-149.77;90.60
60055;BME280;45930;53.514;55.904;2023-08-30T04:04:43;45536.59;;;-149.77;89.88
60055;BME280;45930;53.514;55.904;2023-08-30T04:06:02;46051.16;;;-149.77;88.44
60055;BME280;45930;53.514;55.904;2023-08-30T04:10:40;46458.91;;;-149.77;88.76
60055;BME280;45930;53.514;55.904;2023-08-30T04:15:17;46106.56;;;-149.77;89.37
60055;BME280;45930;53.514;55.904;2023-08-30T04:16:37;45880.94;;;-149.77;90.00
60055;BME280;45930;53.514;55.904;2023-08-30T04:17:55;45318.94;;;-149.77;90.53
60055;BME280;45930;53.514;55.904;2023-08-30T04:22:40;45894.81;;;-149.77;89.75
60055;BME280;45930;53.514;55.904;2023-08-30T04:27:18;45952.19;;;-149.77;90.10
60055;BME280;45930;53.514;55.904;2023-08-30T04:31:56;46348.03;;;-149.77;89.02
60055;BME280;45930;53.514;55.904;2023-08-30T04:36:40;45524.72;;;-149.77;89.98
60055;BME280;45930;53.514;55.904;2023-08-30T04:41:17;46253.03;;;-149.77;89.45
60055;BME280;45930;53.514;55.904;2023-08-30T04:45:55;45924.50;;;-149.77;90.14
60055;BME280;45930;53.514;55.904;2023-08-30T04:47:14;45825.53;;;-149.77;90.29
60055;BME280;45930;53.514;55.904;2023-08-30T04:51:52;46613.28;;;-149.77;88.35
60055;BME280;45930;53.514;55.904;2023-08-30T04:56:29;46678.59;;;-149.77;88.16
60055;BME280;45930;53.514;55.904;2023-08-30T05:01:08;47007.22;;;-149.77;87.41
60055;BME280;45930;53.514;55.904;2023-08-30T05:05:47;47126.00;;;-149.77;86.81
60055;BME280;45930;53.514;55.904;2023-08-30T05:10:25;47945.69;;;-149.77;84.09
60055;BME280;45930;53.514;55.904;2023-08-30T05:20:06;48840.81;;;-149.77;80.99
60055;BME280;45930;53.514;55.904;2023-08-30T05:24:44;49369.66;;;-149.77;78.04
60055;BME280;45930;53.514;55.904;2023-08-30T05:26:03;49413.25;;;-149.77;78.85
60055;BME280;45930;53.514;55.904;2023-08-30T05:30:41;49452.84;;;-149.77;79.01
60055;BME280;45930;53.514;55.904;2023-08-30T05:32:01;49302.31;;;-149.77;80.31
60055;BME280;45930;53.514;55.904;2023-08-30T05:33:19;49258.75;;;-149.77;80.57
60055;BME280;45930;53.514;55.904;2023-08-30T05:38:04;49393.44;;;-149.77;79.36
60055;BME280;45930;53.514;55.904;2023-08-30T05:39:23;49442.97;;;-149.77;79.27
60055;BME280;45930;53.514;55.904;2023-08-30T05:44:01;49345.91;;;-149.77;80.12
60055;BME280;45930;53.514;55.904;2023-08-30T05:45:20;49431.06;;;-149.77;78.70
60055;BME280;45930;53.514;55.904;2023-08-30T05:49:57;49730.19;;;-149.77;75.58
60055;BME280;45930;53.514;55.904;2023-08-30T05:51:18;49831.22;;;-149.77;74.88
60055;BME280;45930;53.514;55.904;2023-08-30T05:55:56;49886.69;;;-149.77;74.03
60055;BME280;45930;53.514;55.904;2023-08-30T06:00:34;49989.72;;;-149.77;72.96
60055;BME280;45930;53.514;55.904;2023-08-30T06:01:54;49967.94;;;-149.77;72.88
60055;BME280;45930;53.514;55.904;2023-08-30T06:06:31;50082.84;;;-149.77;70.93
60055;BME280;45930;53.514;55.904;2023-08-30T06:07:50;50055.09;;;-149.77;70.35
60055;BME280;45930;53.514;55.904;2023-08-30T06:09:10;50086.78;;;-149.77;69.81
60055;BME280;45930;53.514;55.904;2023-08-30T06:10:31;50110.56;;;-149.77;69.85
60055;BME280;45930;53.514;55.904;2023-08-30T06:16:34;50170.00;;;-149.77;64.83
60055;BME280;45930;53.514;55.904;2023-08-30T06:17:53;50144.25;;;-149.77;63.69
60055;BME280;45930;53.514;55.904;2023-08-30T06:22:43;50122.47;;;-149.77;63.62
60055;BME280;45930;53.514;55.904;2023-08-30T06:24:02;50134.34;;;-149.77;63.58
60055;BME280;45930;53.514;55.904;2023-08-30T06:25:22;50112.56;;;-149.77;63.02
60055;BME280;45930;53.514;55.904;2023-08-30T06:26:42;50116.50;;;-149.77;62.62
60055;BME280;45930;53.514;55.904;2023-08-30T06:28:02;50118.50;;;-149.77;62.15
60055;BME280;45930;53.514;55.904;2023-08-30T06:32:39;50021.41;;;-149.77;60.60
60055;BME280;45930;53.514;55.904;2023-08-30T06:37:16;49997.63;;;-149.77;59.70
60055;BME280;45930;53.514;55.904;2023-08-30T06:41:54;49981.78;;;-149.77;57.52
60055;BME280;45930;53.514;55.904;2023-08-30T06:46:34;49853.03;;;-149.77;55.85
60055;BME280;45930;53.514;55.904;2023-08-30T06:51:12;49775.75;;;-149.77;54.75
60055;BME280;45930;53.514;55.904;2023-08-30T06:57:14;49746.03;;;-149.77;52.73
60055;BME280;45930;53.514;55.904;2023-08-30T06:58:33;49742.09;;;-149.77;52.49
60055;BME280;45930;53.514;55.904;2023-08-30T07:04:43;49714.34;;;-149.77;52.13
60055;BME280;45930;53.514;55.904;2023-08-30T07:06:01;49692.56;;;-149.77;51.96
60055;BME280;45930;53.514;55.904;2023-08-30T07:15:29;49674.72;;;-149.77;51.29
60055;BME280;45930;53.514;55.904;2023-08-30T07:20:05;49710.38;;;-149.77;52.52
60055;BME280;45930;53.514;55.904;2023-08-30T07:21:27;49688.59;;;-149.77;52.39
60055;BME280;45930;53.514;55.904;2023-08-30T07:22:46;49690.56;;;-149.77;52.67
60055;BME280;45930;53.514;55.904;2023-08-30T07:24:06;49718.31;;;-149.77;53.18
60055;BME280;45930;53.514;55.904;2023-08-30T07:25:26;49714.34;;;-149.77;52.85
60055;BME280;45930;53.514;55.904;2023-08-30T07:26:45;49660.84;;;-149.77;52.07
60055;BME280;45930;53.514;55.904;2023-08-30T07:28:04;49726.22;;;-149.77;52.97
60055;BME280;45930;53.514;55.904;2023-08-30T07:32:43;49690.56;;;-149.77;52.99
60055;BME280;45930;53.514;55.904;2023-08-30T07:34:03;49714.34;;;-149.77;53.25
60055;BME280;45930;53.514;55.904;2023-08-30T07:35:22;49742.09;;;-149.77;53.43
60055;BME280;45930;53.514;55.904;2023-08-30T07:36:42;49710.38;;;-149.77;52.77
60055;BME280;45930;53.514;55.904;2023-08-30T07:38:00;49647.00;;;-149.77;51.52
60055;BME280;45930;53.514;55.904;2023-08-30T07:42:37;49637.09;;;-149.77;51.87
60055;BME280;45930;53.514;55.904;2023-08-30T07:47:15;49648.97;;;-149.77;51.75
60055;BME280;45930;53.514;55.904;2023-08-30T07:48:35;49658.88;;;-149.77;51.84
60055;BME280;45930;53.514;55.904;2023-08-30T07:49:54;49623.22;;;-149.77;51.73
60055;BME280;45930;53.514;55.904;2023-08-30T07:51:14;49633.13;;;-149.77;51.66
60055;BME280;45930;53.514;55.904;2023-08-30T07:52:33;49617.28;;;-149.77;51.35
60055;BME280;45930;53.514;55.904;2023-08-30T07:53:52;49601.44;;;-149.77;51.00
60055;BME280;45930;53.514;55.904;2023-08-30T07:55:12;49631.16;;;-149.77;50.83
60055;BME280;45930;53.514;55.904;2023-08-30T07:56:31;49603.41;;;-149.77;50.64
60055;BME280;45930;53.514;55.904;2023-08-30T07:57:50;49611.34;;;-149.77;50.57
60055;BME280;45930;53.514;55.904;2023-08-30T08:02:28;49593.50;;;-149.77;50.31
60055;BME280;45930;53.514;55.904;2023-08-30T08:03:47;49589.53;;;-149.77;50.21
60055;BME280;45930;53.514;55.904;2023-08-30T08:05:07;49585.59;;;-149.77;50.06
60055;BME280;45930;53.514;55.904;2023-08-30T08:09:45;49585.59;;;-149.77;50.51
60055;BME280;45930;53.514;55.904;2023-08-30T08:11:04;49583.59;;;-149.77;50.01
60055;BME280;45930;53.514;55.904;2023-08-30T08:15:41;49569.72;;;-149.77;49.60
60055;BME280;45930;53.514;55.904;2023-08-30T08:17:04;49551.91;;;-149.77;49.09
60055;BME280;45930;53.514;55.904;2023-08-30T08:18:23;49549.94;;;-149.77;49.47
60055;BME280;45930;53.514;55.904;2023-08-30T08:23:01;49545.97;;;-149.77;49.41
60055;BME280;45930;53.514;55.904;2023-08-30T08:24:20;49516.25;;;-149.77;49.24
60055;BME280;45930;53.514;55.904;2023-08-30T08:25:40;49547.94;;;-149.77;48.96
60055;BME280;45930;53.514;55.904;2023-08-30T08:26:59;49524.16;;;-149.77;49.04
60055;BME280;45930;53.514;55.904;2023-08-30T08:28:20;49528.13;;;-149.77;49.49
60055;BME280;45930;53.514;55.904;2023-08-30T08:32:58;49496.44;;;-149.77;47.75
60055;BME280;45930;53.514;55.904;2023-08-30T08:34:18;49494.47;;;-149.77;48.04
60055;BME280;45930;53.514;55.904;2023-08-30T08:35:37;49498.41;;;-149.77;48.08
60055;BME280;45930;53.514;55.904;2023-08-30T08:36:56;49518.22;;;-149.77;48.23
60055;BME280;45930;53.514;55.904;2023-08-30T08:38:15;49538.03;;;-149.77;48.38
60055;BME280;45930;53.514;55.904;2023-08-30T08:42:54;49476.63;;;-149.77;46.69
60055;BME280;45930;53.514;55.904;2023-08-30T08:44:15;49486.53;;;-149.77;47.32
60055;BME280;45930;53.514;55.904;2023-08-30T08:45:35;49490.50;;;-149.77;47.19
60055;BME280;45930;53.514;55.904;2023-08-30T08:46:58;49488.50;;;-149.77;47.56
60055;BME280;45930;53.514;55.904;2023-08-30T08:48:19;49502.38;;;-149.77;47.10
60055;BME280;45930;53.514;55.904;2023-08-30T08:52:57;49444.94;;;-149.77;46.27
60055;BME280;45930;53.514;55.904;2023-08-30T08:57:37;49472.66;;;-149.77;45.51
60055;BME280;45930;53.514;55.904;2023-08-30T09:02:14;49448.91;;;-149.77;45.60
60055;BME280;45930;53.514;55.904;2023-08-30T09:06:54;49446.91;;;-149.77;45.00
60055;BME280;45930;53.514;55.904;2023-08-30T09:08:15;49448.91;;;-149.77;44.86
60055;BME280;45930;53.514;55.904;2023-08-30T09:12:53;49478.63;;;-149.77;45.71
60055;BME280;45930;53.514;55.904;2023-08-30T09:14:12;49476.63;;;-149.77;45.16
60055;BME280;45930;53.514;55.904;2023-08-30T09:15:34;49460.78;;;-149.77;44.58
60055;BME280;45930;53.514;55.904;2023-08-30T09:17:01;49462.75;;;-149.77;44.39
60055;BME280;45930;53.514;55.904;2023-08-30T09:21:39;49444.94;;;-149.77;44.98
60055;BME280;45930;53.514;55.904;2023-08-30T09:26:31;49468.72;;;-149.77;45.79
60055;BME280;45930;53.514;55.904;2023-08-30T09:30:52;49468.72;;;-149.77;45.33
60055;BME280;45930;53.514;55.904;2023-08-30T09:32:11;49460.78;;;-149.77;45.55
60055;BME280;45930;53.514;55.904;2023-08-30T09:41:27;49431.06;;;-149.77;44.81
60055;BME280;45930;53.514;55.904;2023-08-30T09:50:58;49417.19;;;-149.77;44.74
60055;BME280;45930;53.514;55.904;2023-08-30T09:55:34;49417.19;;;-149.77;43.98
60055;BME280;45930;53.514;55.904;2023-08-30T09:56:54;49431.06;;;-149.77;44.13
60055;BME280;45930;53.514;55.904;2023-08-30T09:58:15;49425.13;;;-149.77;43.51
60055;BME280;45930;53.514;55.904;2023-08-30T10:02:53;49435.03;;;-149.77;43.68
60055;BME280;45930;53.514;55.904;2023-08-30T10:07:32;49435.03;;;-149.77;44.61
60055;BME280;45930;53.514;55.904;2023-08-30T10:12:10;49413.25;;;-149.77;44.58
60055;BME280;45930;53.514;55.904;2023-08-30T10:13:30;49435.03;;;-149.77;44.44
60055;BME280;45930;53.514;55.904;2023-08-30T10:14:51;49421.16;;;-149.77;44.81
60055;BME280;45930;53.514;55.904;2023-08-30T10:16:16;49450.88;;;-149.77;44.81
60055;BME280;45930;53.514;55.904;2023-08-30T10:17:40;49401.34;;;-149.77;44.65
60055;BME280;45930;53.514;55.904;2023-08-30T10:22:18;49431.06;;;-149.77;44.75
60055;BME280;45930;53.514;55.904;2023-08-30T10:23:39;49417.19;;;-149.77;45.09
60055;BME280;45930;53.514;55.904;2023-08-30T10:25:01;49421.16;;;-149.77;44.95
60055;BME280;45930;53.514;55.904;2023-08-30T10:26:27;49423.16;;;-149.77;45.23
60055;BME280;45930;53.514;55.904;2023-08-30T10:27:48;49458.81;;;-149.77;47.21
60055;BME280;45930;53.514;55.904;2023-08-30T10:32:26;49593.50;;;-149.77;53.82
60055;BME280;45930;53.514;55.904;2023-08-30T10:37:09;49508.31;;;-149.77;50.51
60055;BME280;45930;53.514;55.904;2023-08-30T10:41:54;49466.72;;;-149.77;48.11
60055;BME280;45930;53.514;55.904;2023-08-30T10:46:34;49452.84;;;-149.77;47.16
60055;BME280;45930;53.514;55.904;2023-08-30T10:47:55;49466.72;;;-149.77;46.93
60055;BME280;45930;53.514;55.904;2023-08-30T10:52:35;49448.91;;;-149.77;45.79
60055;BME280;45930;53.514;55.904;2023-08-30T10:57:13;49647.00;;;-149.77;56.03
60055;BME280;45930;53.514;55.904;2023-08-30T11:03:23;50235.38;;;-149.77;72.01
60055;BME280;45930;53.514;55.904;2023-08-30T11:04:43;50261.16;;;-149.77;72.13
60055;BME280;45930;53.514;55.904;2023-08-30T11:06:03;50249.25;;;-149.77;70.85
60055;BME280;45930;53.514;55.904;2023-08-30T11:07:24;50055.09;;;-149.77;65.50
60055;BME280;45930;53.514;55.904;2023-08-30T11:08:44;50112.56;;;-149.77;66.67
60055;BME280;45930;53.514;55.904;2023-08-30T11:14:55;49864.91;;;-149.77;60.15
60055;BME280;45930;53.514;55.904;2023-08-30T11:16:21;49849.06;;;-149.77;59.15
60055;BME280;45930;53.514;55.904;2023-08-30T11:17:41;49876.78;;;-149.77;60.22
60055;BME280;45930;53.514;55.904;2023-08-30T11:27:09;50154.16;;;-149.77;80.33
60055;BME280;45930;53.514;55.904;2023-08-30T11:31:48;49726.22;;;-149.77;86.20
60055;BME280;45930;53.514;55.904;2023-08-30T11:36:26;47628.88;;;-149.77;93.64
60055;BME280;45930;53.514;55.904;2023-08-30T11:37:46;43682.78;;;-149.77;96.73
60055;BME280;45930;53.514;55.904;2023-08-30T11:42:25;24167.00;;;-149.77;100.00
60055;BME280;45930;53.514;55.904;2023-08-30T11:47:04;20389.94;;;-149.77;100.00
60055;BME280;45930;53.514;55.904;2023-08-30T11:48:24;20893.34;;;-149.77;100.00